Time;durP1;ratioP1;P1;durP2;ratioP2;P2;SDS_P1;SDS_P2;PMS_P1;PMS_P2;Temp;Humidity;BMP_temperature;BMP_pressure;BME280_temperature;BME280_humidity;BME280_pressure;Samples;Min_cycle;Max_cycle;Signal;HPM_P1;HPM_P2
2022/09/12 00:01:22;;;;;;;30.83;24.27;;;;;;;22.38;54.88;101797.72;5074745;28;20032;-74
2022/09/12 00:03:54;;;;;;;29.13;22.73;;;;;;;22.40;54.58;101798.25;5055665;28;20037;-75
2022/09/12 00:06:23;;;;;;;26.38;23.60;;;;;;;22.38;54.52;101794.13;5072337;28;20531;-75
2022/09/12 00:08:48;;;;;;;27.35;24.45;;;;;;;22.35;54.88;101803.72;5074077;28;20492;-74
2022/09/12 00:11:14;;;;;;;29.95;24.90;;;;;;;22.34;54.79;101788.41;5074025;28;20044;-73
2022/09/12 00:13:41;;;;;;;28.63;25.63;;;;;;;22.28;55.12;101794.19;5075071;28;20040;-75
2022/09/12 00:16:12;;;;;;;27.60;23.95;;;;;;;22.34;55.11;101790.31;5074303;28;20117;-75
2022/09/12 00:18:38;;;;;;;28.15;24.17;;;;;;;22.27;55.40;101793.34;5073594;28;20504;-73
2022/09/12 00:21:03;;;;;;;30.38;25.42;;;;;;;22.22;54.72;101787.91;5073734;28;20090;-75
2022/09/12 00:23:30;;;;;;;28.73;25.48;;;;;;;22.30;55.44;101786.50;5073922;28;20036;-76
2022/09/12 00:25:56;;;;;;;28.40;24.63;;;;;;;22.25;54.51;101786.53;5093000;28;20119;-75
2022/09/12 00:28:21;;;;;;;33.40;26.27;;;;;;;22.18;54.68;101786.00;5075565;28;20043;-74
2022/09/12 00:30:48;;;;;;;29.92;24.67;;;;;;;22.25;54.71;101786.53;5075343;28;20419;-76
2022/09/12 00:33:15;;;;;;;27.60;23.90;;;;;;;22.23;54.32;101783.25;5074873;28;20480;-74
2022/09/12 00:35:44;;;;;;;33.38;24.77;;;;;;;22.18;54.35;101775.88;5073319;28;20040;-76
2022/09/12 00:38:10;;;;;;;28.13;23.10;;;;;;;21.98;54.82;101777.84;5055437;28;20039;-74
2022/09/12 00:40:35;;;;;;;28.25;24.00;;;;;;;22.09;54.72;101780.28;5091567;28;20081;-75
2022/09/12 00:43:01;;;;;;;28.35;24.48;;;;;;;22.09;54.60;101780.28;5093425;28;20035;-75
2022/09/12 00:45:28;;;;;;;28.02;25.02;;;;;;;22.08;54.48;101775.91;5093621;28;20503;-73
2022/09/12 00:47:57;;;;;;;26.10;23.30;;;;;;;22.14;54.32;101777.53;5093811;28;20032;-76
2022/09/12 00:50:23;;;;;;;30.65;26.13;;;;;;;22.19;54.59;101782.19;5093257;28;20564;-74
2022/09/12 00:52:56;;;;;;;32.03;26.63;;;;;;;22.02;55.62;101774.28;5093341;28;20067;-73
2022/09/12 00:55:28;;;;;;;29.90;25.92;;;;;;;22.06;55.48;101772.63;5094057;28;20510;-75
2022/09/12 00:58:19;;;;;;;31.90;25.98;;;;;;;22.15;54.61;101768.19;5093224;28;20042;-74
2022/09/12 01:00:46;;;;;;;35.10;26.88;;;;;;;22.11;55.32;101772.59;5092803;28;20040;-76
2022/09/12 01:03:14;;;;;;;33.60;27.02;;;;;;;22.09;56.11;101754.81;5092817;28;20344;-76
2022/09/12 01:05:45;;;;;;;32.75;26.27;;;;;;;22.05;56.17;101761.97;5092716;28;20115;-75
2022/09/12 01:08:11;;;;;;;36.15;28.42;;;;;;;22.04;56.00;101763.88;5092718;28;20069;-74
2022/09/12 01:10:39;;;;;;;27.67;24.65;;;;;;;22.09;56.23;101769.34;5075176;28;20044;-74
2022/09/12 01:13:06;;;;;;;28.13;25.13;;;;;;;22.09;55.80;101769.34;5093016;28;20036;-74
2022/09/12 01:15:32;;;;;;;32.30;27.02;;;;;;;21.99;56.76;101763.06;5075201;28;20058;-74
2022/09/12 01:18:22;;;;;;;34.45;27.55;;;;;;;22.04;56.55;101763.88;5092411;28;20115;-75
2022/09/12 01:21:02;;;;;;;35.00;26.88;;;;;;;22.03;56.42;101756.78;5092412;28;20070;-75
2022/09/12 01:23:30;;;;;;;35.83;27.63;;;;;;;22.08;56.18;101754.00;5092898;28;20040;-74
2022/09/12 01:26:21;;;;;;;36.20;29.23;;;;;;;22.11;55.96;101753.44;5092763;28;20029;-76
2022/09/12 01:28:55;;;;;;;;;;;;;;;22.05;56.37;101754.56;5093300;28;20055;-75
2022/09/12 01:31:46;;;;;;;34.15;26.73;;;;;;;22.10;56.09;101753.72;5092727;28;19915;-75
2022/09/12 01:34:25;;;;;;;32.83;27.80;;;;;;;22.05;56.33;101748.28;5073582;28;20036;-76
2022/09/12 01:37:08;;;;;;;33.92;27.45;;;;;;;22.05;56.35;101748.28;5075166;28;20036;-74
2022/09/12 01:39:50;;;;;;;32.42;28.13;;;;;;;21.93;56.57;101750.50;5092467;28;20553;-77
2022/09/12 01:42:29;;;;;;;30.85;27.58;;;;;;;21.98;56.37;101750.47;5092269;28;20126;-75
2022/09/12 01:44:57;;;;;;;32.95;26.98;;;;;;;21.95;56.46;101749.13;5092436;28;20055;-74
2022/09/12 01:47:36;;;;;;;41.53;28.33;;;;;;;21.94;56.33;101741.16;5092872;28;20101;-74
2022/09/12 01:50:34;;;;;;;40.50;30.00;;;;;;;21.94;55.93;101742.00;5092894;28;20036;-74
2022/09/12 01:53:13;;;;;;;32.58;26.58;;;;;;;21.97;55.88;101746.94;5092083;28;20036;-78
2022/09/12 01:55:48;;;;;;;35.88;27.45;;;;;;;21.94;56.36;101741.16;5092995;28;20553;-73
2022/09/12 01:58:24;;;;;;;34.75;27.05;;;;;;;21.89;56.76;101739.28;5092280;28;20048;-74
2022/09/12 02:01:18;;;;;;;37.90;30.45;;;;;;;21.83;56.22;101732.19;5092145;28;20081;-75
2022/09/12 02:03:51;;;;;;;34.85;28.17;;;;;;;21.90;56.20;101729.13;5091959;28;20028;-75
2022/09/12 02:06:29;;;;;;;39.75;29.70;;;;;;;21.81;56.45;101729.75;5091639;28;20047;-75
2022/09/12 02:09:18;;;;;;;38.90;29.38;;;;;;;21.72;56.05;101720.41;5091843;28;20028;-76
2022/09/12 02:11:45;;;;;;;37.65;29.00;;;;;;;21.76;56.38;101724.22;4989515;28;20131;-75
2022/09/12 02:14:33;;;;;;;35.35;28.77;;;;;;;21.72;56.36;101719.59;4989817;28;20086;-75
2022/09/12 02:17:10;;;;;;;41.25;30.17;;;;;;;21.61;56.56;101721.53;4989408;28;20134;-74
2022/09/12 02:19:45;;;;;;;37.22;29.83;;;;;;;21.65;56.62;101714.41;4990390;28;20161;-75
2022/09/12 02:22:15;;;;;;;39.95;29.85;;;;;;;21.66;56.74;101712.50;4989767;28;20142;-74
2022/09/12 02:24:44;;;;;;;40.92;31.13;;;;;;;21.58;56.61;101713.06;4989666;28;20078;-73
2022/09/12 02:27:22;;;;;;;46.10;31.30;;;;;;;21.54;56.95;101712.78;4989550;28;20054;-75
2022/09/12 02:30:08;;;;;;;43.85;32.42;;;;;;;21.51;57.12;101716.09;4988018;28;20053;-75
2022/09/12 02:32:38;;;;;;;43.90;31.88;;;;;;;21.66;56.43;101709.78;4978440;28;20066;-75
2022/09/12 02:35:42;;;;;;;44.40;31.45;;;;;;;21.70;56.49;101705.34;4988779;28;20039;-75
2022/09/12 02:38:31;;;;;;;48.13;33.80;;;;;;;21.56;56.37;101702.38;4950566;29;20027;-75
2022/09/12 02:40:57;;;;;;;45.97;34.10;;;;;;;21.64;56.52;101703.75;4950750;29;20055;-75
2022/09/12 02:43:22;;;;;;;46.80;34.22;;;;;;;21.59;56.04;101698.28;4950998;29;20051;-76
2022/09/12 02:45:48;;;;;;;42.60;31.83;;;;;;;21.53;55.64;101697.47;4950561;29;20039;-75
2022/09/12 02:48:25;;;;;;;43.10;31.25;;;;;;;21.52;55.78;101701.31;4964424;28;20533;-74
2022/09/12 02:50:50;;;;;;;46.83;32.88;;;;;;;21.39;56.09;101687.38;5008846;28;20049;-74
2022/09/12 02:53:17;;;;;;;42.40;33.63;;;;;;;21.46;55.93;101690.66;5008666;28;20037;-75
2022/09/12 02:55:43;;;;;;;41.28;32.85;;;;;;;21.40;56.04;101697.25;5009425;28;20046;-74
2022/09/12 02:58:14;;;;;;;41.97;32.42;;;;;;;21.43;55.60;101688.47;5008813;28;20177;-76
2022/09/12 03:00:50;;;;;;;48.97;34.35;;;;;;;21.44;55.42;101690.13;5008839;28;20034;-75
2022/09/12 03:03:37;;;;;;;46.90;32.35;;;;;;;21.19;56.42;101681.97;5008996;28;20157;-75
2022/09/12 03:06:27;;;;;;;43.25;30.88;;;;;;;21.19;56.15;101684.69;5009170;28;20065;-73
2022/09/12 03:09:03;;;;;;;48.80;33.55;;;;;;;21.24;55.49;101676.47;4969886;28;20105;-73
2022/09/12 03:11:58;;;;;;;40.97;31.63;;;;;;;21.16;55.60;101674.31;4970209;28;20157;-74
2022/09/12 03:14:29;;;;;;;41.88;32.78;;;;;;;21.18;55.78;101683.88;5034161;28;20048;-75
2022/09/12 03:17:26;;;;;;;48.33;34.10;;;;;;;21.12;55.71;101679.50;5048265;28;20130;-76
2022/09/12 03:20:10;;;;;;;48.10;32.80;;;;;;;21.04;55.70;101685.53;5047690;28;20068;-76
2022/09/12 03:22:56;;;;;;;43.25;32.42;;;;;;;20.99;55.85;101680.03;5049024;28;20024;-75
2022/09/12 03:25:43;;;;;;;41.60;32.55;;;;;;;20.96;55.85;101677.84;5032439;28;20049;-76
2022/09/12 03:28:13;;;;;;;40.50;30.67;;;;;;;20.98;55.65;101678.38;5028169;28;20045;-75
2022/09/12 03:30:39;;;;;;;44.60;32.30;;;;;;;20.90;55.93;101684.38;5028606;28;20458;-73
2022/09/12 03:33:05;;;;;;;42.30;31.98;;;;;;;20.75;56.32;101673.47;5028050;28;20575;-75
2022/09/12 03:35:32;;;;;;;43.97;30.95;;;;;;;20.76;56.34;101680.56;5028425;28;20136;-74
2022/09/12 03:37:57;;;;;;;46.55;34.60;;;;;;;20.77;56.30;101674.00;5028227;28;20044;-74
2022/09/12 03:40:22;;;;;;;43.25;31.77;;;;;;;20.78;56.63;101683.84;5029266;28;20119;-75
2022/09/12 03:42:48;;;;;;;38.65;29.90;;;;;;;20.72;56.22;101684.91;5031648;28;20573;-74
2022/09/12 03:45:15;;;;;;;40.55;31.55;;;;;;;20.76;56.09;101680.56;5039224;28;20040;-76
2022/09/12 03:47:40;;;;;;;45.83;33.28;;;;;;;20.80;55.91;101678.91;5089145;28;20561;-75
2022/09/12 03:50:06;;;;;;;45.30;31.13;;;;;;;20.73;56.27;101675.66;5094705;28;20036;-76
2022/09/12 03:52:32;;;;;;;39.85;30.92;;;;;;;20.77;56.17;101676.75;5095241;28;20028;-76
2022/09/12 03:54:57;;;;;;;46.25;32.50;;;;;;;20.78;56.21;101673.72;5094802;28;20028;-73
2022/09/12 03:57:23;;;;;;;40.92;31.38;;;;;;;20.70;56.20;101667.97;5094570;28;20032;-74
2022/09/12 03:59:51;;;;;;;38.58;30.00;;;;;;;20.66;56.09;101661.41;5094364;28;20036;-75
2022/09/12 04:02:17;;;;;;;37.95;29.35;;;;;;;20.61;56.28;101666.88;5092638;28;20499;-74
2022/09/12 04:04:45;;;;;;;41.25;30.80;;;;;;;20.64;55.92;101664.44;5075364;28;20048;-75
2022/09/12 04:07:10;;;;;;;43.50;31.85;;;;;;;20.63;56.10;101660.06;5089510;28;20058;-75
2022/09/12 04:09:36;;;;;;;47.63;33.03;;;;;;;20.69;56.18;101660.88;5083064;28;20054;-75
2022/09/12 04:12:02;;;;;;;39.25;31.92;;;;;;;20.51;56.59;101651.31;5093517;28;20039;-75
2022/09/12 04:14:27;;;;;;;46.13;32.95;;;;;;;20.65;56.72;101648.88;5093963;28;20626;-76
2022/09/12 04:16:53;;;;;;;49.20;33.80;;;;;;;20.70;56.65;101646.94;5094571;28;20049;-74
2022/09/12 04:19:18;;;;;;;51.10;36.65;;;;;;;20.76;56.60;101651.31;5094773;28;20028;-73
2022/09/12 04:21:43;;;;;;;52.63;35.28;;;;;;;20.69;56.88;101656.25;5076196;28;20040;-74
2022/09/12 04:24:09;;;;;;;49.47;33.03;;;;;;;20.79;56.79;101655.44;5093553;28;20040;-74
2022/09/12 04:26:34;;;;;;;47.55;34.53;;;;;;;20.86;56.41;101653.25;5075432;28;20039;-74
2022/09/12 04:28:59;;;;;;;45.80;34.40;;;;;;;20.83;56.60;101656.53;5093660;28;20044;-73
2022/09/12 04:31:25;;;;;;;46.58;36.65;;;;;;;20.87;56.51;101649.44;5089936;28;20043;-74
2022/09/12 04:33:58;;;;;;;51.15;35.78;;;;;;;20.82;56.73;101660.34;5073535;28;20029;-74
2022/09/12 04:36:24;;;;;;;44.67;34.47;;;;;;;20.79;56.83;101645.34;5073320;28;20056;-75
2022/09/12 04:38:50;;;;;;;51.53;36.35;;;;;;;20.84;56.76;101653.53;5075987;28;20123;-74
2022/09/12 04:41:21;;;;;;;46.72;35.03;;;;;;;20.88;56.51;101651.88;5081898;28;20063;-75
2022/09/12 04:43:50;;;;;;;46.33;33.45;;;;;;;20.85;56.68;101654.34;5077332;28;20103;-74
2022/09/12 04:46:19;;;;;;;53.47;35.50;;;;;;;20.91;56.39;101647.78;5081615;28;20470;-76
2022/09/12 04:48:45;;;;;;;50.08;36.70;;;;;;;20.93;56.17;101646.41;5092692;28;20127;-75
2022/09/12 04:51:14;;;;;;;59.15;36.33;;;;;;;20.93;56.45;101645.59;5073334;28;20045;-75
2022/09/12 04:53:41;;;;;;;52.50;35.85;;;;;;;20.88;56.74;101653.78;5080686;28;20031;-75
2022/09/12 04:56:09;;;;;;;50.17;35.15;;;;;;;20.92;56.51;101652.97;5083441;28;20036;-74
2022/09/12 04:58:35;;;;;;;47.25;34.15;;;;;;;20.92;56.83;101655.72;5083308;28;20016;-76
2022/09/12 05:01:10;;;;;;;58.08;35.58;;;;;;;20.86;56.75;101650.50;5085172;28;20060;-75
2022/09/12 05:03:39;;;;;;;47.60;33.92;;;;;;;20.92;56.24;101649.41;5085842;28;20095;-74
2022/09/12 05:06:06;;;;;;;55.15;36.38;;;;;;;20.90;56.45;101641.50;5084837;28;20047;-75
2022/09/12 05:08:34;;;;;;;50.63;35.63;;;;;;;20.93;56.43;101653.81;5075215;28;20125;-75
2022/09/12 05:11:09;;;;;;;46.90;34.08;;;;;;;20.96;56.48;101647.78;5093011;28;20112;-76
2022/09/12 05:13:34;;;;;;;53.38;36.50;;;;;;;21.04;55.99;101643.69;5093765;28;20028;-74
2022/09/12 05:16:02;;;;;;;49.85;36.72;;;;;;;20.96;56.73;101648.59;5092801;28;20571;-73
2022/09/12 05:18:31;;;;;;;57.75;35.70;;;;;;;21.04;56.38;101643.69;5092793;28;20097;-73
2022/09/12 05:20:59;;;;;;;53.25;36.35;;;;;;;20.90;56.90;101648.88;5092898;28;20056;-76
2022/09/12 05:23:24;;;;;;;53.53;35.35;;;;;;;20.88;56.83;101642.84;5092959;28;20032;-74
2022/09/12 05:25:51;;;;;;;55.13;37.33;;;;;;;20.99;56.67;101647.25;5090135;28;20032;-76
2022/09/12 05:28:17;;;;;;;56.35;37.85;;;;;;;21.11;56.28;101655.19;5085556;28;20082;-74
2022/09/12 05:30:43;;;;;;;59.72;35.60;;;;;;;21.19;56.13;101651.91;5087264;28;20040;-75
2022/09/12 05:33:08;;;;;;;53.67;35.55;;;;;;;21.03;56.74;101651.06;5069650;28;20484;-74
2022/09/12 05:35:33;;;;;;;48.03;33.85;;;;;;;21.12;56.17;101656.81;5087227;28;20062;-75
2022/09/12 05:37:59;;;;;;;51.08;34.53;;;;;;;21.17;56.10;101657.63;5092680;28;20024;-77
2022/09/12 05:40:24;;;;;;;49.60;35.85;;;;;;;21.23;56.02;101659.25;5092802;28;20028;-73
2022/09/12 05:42:49;;;;;;;48.33;32.92;;;;;;;21.23;55.81;101667.44;5093085;28;20028;-77
2022/09/12 05:45:15;;;;;;;50.40;35.22;;;;;;;21.33;55.92;101659.22;5090912;28;20056;-79
2022/09/12 05:47:42;;;;;;;46.33;33.83;;;;;;;21.37;55.69;101663.06;5088504;28;20024;-77
2022/09/12 05:50:09;;;;;;;50.33;34.92;;;;;;;21.48;55.47;101655.66;5081461;28;20431;-76
2022/09/12 05:52:35;;;;;;;51.45;34.72;;;;;;;21.42;55.83;101657.59;5084346;28;20439;-78
2022/09/12 05:55:01;;;;;;;53.63;34.15;;;;;;;21.52;55.55;101663.00;5080405;28;20043;-78
2022/09/12 05:57:28;;;;;;;47.85;32.75;;;;;;;21.57;55.69;101659.44;5081119;28;20377;-79
2022/09/12 05:59:53;;;;;;;52.55;34.38;;;;;;;21.70;55.01;101656.94;5083131;28;20024;-77
2022/09/12 06:02:19;;;;;;;49.15;34.83;;;;;;;21.61;55.33;101661.34;5083457;28;20062;-77
2022/09/12 06:04:45;;;;;;;48.85;34.17;;;;;;;21.61;55.53;101658.63;5082815;28;20020;-77
2022/09/12 06:07:10;;;;;;;51.20;34.55;;;;;;;21.59;55.60;101660.00;5080614;28;20032;-77
2022/09/12 06:09:36;;;;;;;51.97;34.45;;;;;;;21.77;55.12;101649.28;5082705;28;20028;-78
2022/09/12 06:12:02;;;;;;;50.95;34.03;;;;;;;21.77;55.11;101657.47;5083073;28;20036;-77
2022/09/12 06:14:28;;;;;;;58.00;36.30;;;;;;;21.84;54.88;101652.53;5082750;28;20522;-77
2022/09/12 06:16:53;;;;;;;58.25;36.67;;;;;;;21.75;55.26;101653.38;5062813;28;20043;-77
2022/09/12 06:19:21;;;;;;;50.50;34.60;;;;;;;21.61;55.70;101647.69;5078682;28;20028;-78
2022/09/12 06:21:50;;;;;;;55.22;36.22;;;;;;;21.81;55.36;101641.34;5072204;28;20098;-78
2022/09/12 06:24:17;;;;;;;53.70;34.85;;;;;;;21.89;54.98;101645.41;5078516;28;20548;-76
2022/09/12 06:26:42;;;;;;;57.17;35.22;;;;;;;21.89;54.90;101629.81;5091589;28;20050;-78
2022/09/12 06:29:10;;;;;;;54.08;35.00;;;;;;;22.04;54.36;101620.69;5091400;28;20048;-78
2022/09/12 06:31:40;;;;;;;52.35;35.35;;;;;;;21.83;55.19;101630.94;5092850;28;20074;-78
2022/09/12 06:34:07;;;;;;;53.67;36.65;;;;;;;21.75;54.97;101624.09;5092432;28;20438;-77
2022/09/12 06:36:41;;;;;;;56.30;35.33;;;;;;;21.93;54.70;101630.91;5092015;28;20040;-78
2022/09/12 06:39:11;;;;;;;52.53;33.97;;;;;;;22.01;54.41;101630.31;5087233;28;20056;-79
2022/09/12 06:41:37;;;;;;;59.92;35.53;;;;;;;22.06;54.18;101635.75;5072883;28;20043;-78
2022/09/12 06:44:02;;;;;;;60.85;36.20;;;;;;;22.18;54.52;101647.19;5082364;28;20353;-77
2022/09/12 06:46:29;;;;;;;53.30;34.75;;;;;;;22.16;54.33;101645.81;5072606;28;20025;-77
2022/09/12 06:48:56;;;;;;;59.38;36.25;;;;;;;22.23;54.41;101643.59;5079303;28;20059;-80
2022/09/12 06:51:21;;;;;;;58.92;35.97;;;;;;;22.13;54.26;101652.66;5078709;28;20044;-78
2022/09/12 06:53:48;;;;;;;64.00;37.08;;;;;;;22.22;54.45;101650.16;5075297;28;20040;-78
2022/09/12 06:56:19;;;;;;;55.90;37.30;;;;;;;22.20;54.27;101642.25;5070927;28;20113;-77
2022/09/12 06:58:46;;;;;;;61.60;36.08;;;;;;;22.39;54.00;101645.94;5075656;28;20044;-77
2022/09/12 07:01:16;;;;;;;57.22;35.78;;;;;;;22.47;53.79;101641.78;5074327;28;20078;-77
2022/09/12 07:03:46;;;;;;;56.72;35.25;;;;;;;22.44;53.47;101634.16;5074910;28;20119;-77
2022/09/12 07:06:14;;;;;;;50.75;34.90;;;;;;;22.63;53.27;101638.69;5079812;28;20047;-78
2022/09/12 07:08:40;;;;;;;53.58;34.20;;;;;;;22.51;53.67;101640.94;5085394;28;20043;-76
2022/09/12 07:11:10;;;;;;;49.08;34.92;;;;;;;22.62;53.80;101644.47;5077096;28;20032;-77
2022/09/12 07:13:36;;;;;;;56.55;36.97;;;;;;;22.78;53.27;101636.94;5070608;28;20052;-78
2022/09/12 07:16:03;;;;;;;55.70;34.75;;;;;;;22.91;52.64;101639.81;5071843;28;20035;-76
2022/09/12 07:18:28;;;;;;;55.95;35.40;;;;;;;22.76;53.39;101641.88;5087227;28;20046;-76
2022/09/12 07:20:54;;;;;;;50.50;33.33;;;;;;;22.79;52.66;101644.03;5083931;28;20032;-78
2022/09/12 07:23:19;;;;;;;54.53;35.90;;;;;;;22.79;52.90;101644.03;5074269;28;20040;-76
2022/09/12 07:25:52;;;;;;;54.80;34.40;;;;;;;22.88;52.82;101643.13;5093267;28;20024;-77
2022/09/12 07:28:18;;;;;;;56.00;34.47;;;;;;;22.86;52.76;101639.84;5086305;28;20048;-77
2022/09/12 07:30:43;;;;;;;57.70;35.55;;;;;;;22.80;53.29;101637.47;5073895;28;20089;-78
2022/09/12 07:33:08;;;;;;;63.67;36.20;;;;;;;22.65;53.54;101643.88;5092065;28;20381;-78
2022/09/12 07:35:34;;;;;;;57.45;36.03;;;;;;;22.69;53.06;101636.72;5074541;28;20040;-77
2022/09/12 07:37:59;;;;;;;65.25;38.42;;;;;;;22.63;53.51;101633.22;5093704;28;20055;-77
2022/09/12 07:40:25;;;;;;;65.95;37.03;;;;;;;22.57;54.42;101641.75;5057974;28;20028;-77
2022/09/12 07:42:50;;;;;;;64.60;37.85;;;;;;;22.58;53.71;101637.91;5078803;28;20047;-77
2022/09/12 07:45:15;;;;;;;64.90;38.97;;;;;;;22.55;54.43;101641.16;5091575;28;20044;-78
2022/09/12 07:47:41;;;;;;;62.28;36.28;;;;;;;22.58;54.09;101630.47;5074811;28;20497;-77
2022/09/12 07:50:07;;;;;;;64.13;39.85;;;;;;;22.48;54.42;101643.44;5094859;28;20035;-76
2022/09/12 07:52:32;;;;;;;57.30;38.53;;;;;;;22.65;54.64;101632.91;5094423;28;20063;-78
2022/09/12 07:54:57;;;;;;;68.45;41.75;;;;;;;22.85;54.11;101629.19;5082504;28;20036;-78
2022/09/12 07:57:23;;;;;;;65.38;39.90;;;;;;;22.90;53.83;101643.66;5055484;28;20378;-79
2022/09/12 07:59:49;;;;;;;64.75;39.75;;;;;;;23.06;54.17;101636.94;5075582;28;20056;-76
2022/09/12 08:02:14;;;;;;;66.10;40.40;;;;;;;23.15;53.43;101632.47;5083541;28;20033;-77
2022/09/12 08:04:41;;;;;;;68.43;38.55;;;;;;;23.15;53.84;101635.22;5093486;28;20032;-76
2022/09/12 08:07:06;;;;;;;71.93;42.17;;;;;;;23.36;53.09;101636.66;5093391;28;20036;-76
2022/09/12 08:09:32;;;;;;;71.90;41.78;;;;;;;23.43;53.14;101633.56;5077857;28;20105;-75
2022/09/12 08:11:57;;;;;;;70.68;40.25;;;;;;;23.49;53.56;101624.16;5072524;28;20131;-75
2022/09/12 08:14:23;;;;;;;71.97;41.13;;;;;;;23.87;52.47;101638.81;5073055;28;20047;-75
2022/09/12 08:16:48;;;;;;;72.68;41.50;;;;;;;23.91;52.15;101637.09;5083827;28;20028;-76
2022/09/12 08:19:14;;;;;;;68.18;40.22;;;;;;;24.07;51.91;101636.66;5081978;28;20526;-78
2022/09/12 08:21:39;;;;;;;72.97;40.72;;;;;;;24.08;52.48;101634.69;5086899;28;20042;-77
2022/09/12 08:24:05;;;;;;;69.53;41.45;;;;;;;24.27;52.13;101636.34;5084861;28;20099;-77
2022/09/12 08:26:32;;;;;;;68.15;40.05;;;;;;;24.29;51.70;101639.59;5072390;28;20048;-77
2022/09/12 08:28:58;;;;;;;66.68;40.10;;;;;;;24.27;51.99;101635.53;5072450;28;20442;-77
2022/09/12 08:31:25;;;;;;;70.22;40.22;;;;;;;24.63;51.55;101633.84;5089944;28;20039;-77
2022/09/12 08:33:54;;;;;;;66.38;41.97;;;;;;;24.73;50.83;101627.41;5079693;28;20079;-77
2022/09/12 08:36:23;;;;;;;61.28;38.25;;;;;;;24.96;50.40;101634.72;5081294;28;20090;-77
2022/09/12 08:38:54;;;;;;;67.57;39.92;;;;;;;24.96;50.32;101634.72;5074648;28;20457;-78
2022/09/12 08:41:33;;;;;;;62.13;38.97;;;;;;;24.89;50.16;101628.78;5077849;28;20126;-77
2022/09/12 08:44:27;;;;;;;62.78;37.50;;;;;;;25.45;49.24;101628.63;5068052;28;20040;-78
2022/09/12 08:47:04;;;;;;;58.55;36.97;;;;;;;25.73;48.63;101633.78;5079092;28;20028;-78
2022/09/12 08:49:51;;;;;;;62.92;37.50;;;;;;;25.86;48.33;101630.22;5081459;28;20472;-77
2022/09/12 08:52:24;;;;;;;56.83;35.95;;;;;;;26.06;48.80;101626.25;5078441;28;20044;-77
2022/09/12 08:55:05;;;;;;;65.43;37.35;;;;;;;25.95;47.86;101622.88;5082285;28;20032;-77
2022/09/12 08:57:31;;;;;;;54.95;35.60;;;;;;;26.25;47.62;101626.91;5093544;28;20044;-75
2022/09/12 08:59:56;;;;;;;62.72;36.60;;;;;;;26.35;46.95;101629.44;5091895;28;20040;-76
2022/09/12 09:02:47;;;;;;;53.83;35.38;;;;;;;26.18;47.45;101628.47;5074807;28;20050;-74
2022/09/12 09:05:25;;;;;;;54.05;36.20;;;;;;;26.37;47.25;101618.91;5076439;28;20047;-77
2022/09/12 09:07:59;;;;;;;65.60;37.75;;;;;;;26.24;47.61;101619.75;5073763;28;20434;-76
2022/09/12 09:10:51;;;;;;;54.38;36.05;;;;;;;26.30;47.12;101614.97;5081456;28;20029;-78
2022/09/12 09:16:22;;;;;;;57.60;34.55;;;;;;;25.68;48.39;101622.09;5077289;28;20122;-77
2022/09/12 09:18:49;;;;;;;61.10;37.83;;;;;;;26.52;46.79;101621.28;5088461;28;20036;-76
2022/09/12 09:21:26;;;;;;;53.92;35.28;;;;;;;26.93;46.67;101627.44;5092577;28;20036;-75
2022/09/12 09:24:15;;;;;;;56.92;34.03;;;;;;;26.91;45.87;101623.38;5088706;28;20052;-74
2022/09/12 09:26:48;;;;;;;56.75;34.50;;;;;;;27.06;46.38;101625.75;5081230;28;20497;-78
2022/09/12 09:29:19;;;;;;;56.20;35.20;;;;;;;27.12;45.88;101616.22;5083844;28;20051;-76
2022/09/12 09:31:51;;;;;;;53.95;34.28;;;;;;;27.24;45.00;101610.91;5065485;28;20175;-76
2022/09/12 09:34:22;;;;;;;55.67;33.75;;;;;;;27.21;44.83;101605.19;5084136;28;20032;-76
2022/09/12 09:36:49;;;;;;;49.72;32.90;;;;;;;26.84;45.19;101603.69;5079212;28;20070;-79
2022/09/12 09:39:42;;;;;;;49.55;32.05;;;;;;;27.05;44.62;101591.00;5077238;28;20028;-77
2022/09/12 09:42:15;;;;;;;48.90;33.50;;;;;;;27.15;45.22;101593.47;5080174;28;20035;-76
2022/09/12 09:44:42;;;;;;;56.17;35.92;;;;;;;27.28;44.61;101591.75;5083311;28;20043;-75
2022/09/12 09:47:10;;;;;;;51.00;33.05;;;;;;;27.37;44.15;101585.16;5077358;28;20024;-76
2022/09/12 09:49:36;;;;;;;51.70;32.60;;;;;;;27.41;43.89;101583.41;5080122;28;20083;-77
2022/09/12 09:52:04;;;;;;;52.20;32.72;;;;;;;27.34;44.37;101582.25;5080747;28;20125;-75
2022/09/12 09:54:39;;;;;;;53.67;33.97;;;;;;;27.60;44.17;101572.06;5076898;28;20048;-75
2022/09/12 09:57:52;;;;;;;50.90;32.65;;;;;;;27.44;43.92;101566.19;5077070;28;20044;-77
2022/09/12 10:00:20;;;;;;;46.95;31.92;;;;;;;27.61;43.56;101568.19;5073914;28;20040;-75
2022/09/12 10:03:00;;;;;;;53.28;31.77;;;;;;;27.54;43.61;101567.81;5079836;28;20040;-77
2022/09/12 10:05:25;;;;;;;44.55;30.55;;;;;;;27.86;44.22;101559.13;5081245;28;20045;-75
2022/09/12 10:07:51;;;;;;;54.58;30.80;;;;;;;27.88;42.98;101559.59;5078475;28;20044;-77
2022/09/12 10:10:20;;;;;;;41.45;28.05;;;;;;;28.23;43.45;101557.69;5084121;28;20012;-75
2022/09/12 10:12:45;;;;;;;39.22;26.73;;;;;;;28.34;42.77;101556.22;5078394;28;20032;-76
2022/09/12 10:15:20;;;;;;;45.70;28.95;;;;;;;27.88;42.83;101551.31;5082792;28;20034;-76
2022/09/12 10:17:48;;;;;;;47.20;29.85;;;;;;;28.02;42.66;101554.78;5082303;28;20404;-75
2022/09/12 10:20:36;;;;;;;41.28;27.70;;;;;;;28.20;42.61;101553.66;5079094;28;20097;-76
2022/09/12 10:23:24;;;;;;;38.80;26.33;;;;;;;28.47;42.12;101535.88;5084216;28;20042;-76
2022/09/12 10:25:56;;;;;;;42.75;24.13;;;;;;;28.29;41.45;101551.69;5062280;28;20044;-74
2022/09/12 10:28:33;;;;;;;38.13;23.25;;;;;;;28.65;40.64;101537.50;5077097;28;20060;-77
2022/09/12 10:31:01;;;;;;;35.63;22.15;;;;;;;28.77;40.19;101540.41;5079085;28;20075;-76
2022/09/12 10:33:28;;;;;;;29.05;20.70;;;;;;;28.85;40.06;101538.75;5060273;28;20555;-75
2022/09/12 10:35:54;;;;;;;29.65;21.35;;;;;;;28.88;40.01;101529.75;5079689;28;20068;-75
2022/09/12 10:38:31;;;;;;;30.48;19.85;;;;;;;28.93;39.50;101543.44;5087348;28;20119;-75
2022/09/12 10:41:04;;;;;;;31.20;21.02;;;;;;;29.15;39.42;101530.16;5087987;28;20099;-76
2022/09/12 10:43:32;;;;;;;30.77;20.15;;;;;;;29.25;39.34;101526.22;5083553;28;20093;-76
2022/09/12 10:46:18;;;;;;;30.73;21.58;;;;;;;29.29;38.62;101530.75;5079148;28;20392;-76
2022/09/12 10:48:47;;;;;;;33.63;21.25;;;;;;;28.63;40.23;101521.25;5080481;28;20492;-76
2022/09/12 10:51:27;;;;;;;27.17;18.98;;;;;;;29.51;39.49;101524.09;5075235;28;20040;-77
2022/09/12 10:53:55;;;;;;;28.02;17.70;;;;;;;29.82;38.65;101521.00;5077053;28;20047;-77
2022/09/12 10:56:37;;;;;;;26.42;17.95;;;;;;;30.14;37.61;101514.69;5070602;28;20052;-75
2022/09/12 10:59:21;;;;;;;29.00;18.02;;;;;;;30.00;37.55;101512.19;5089423;28;20038;-75
2022/09/12 11:01:58;;;;;;;24.58;16.85;;;;;;;30.11;36.59;101516.16;5091440;28;20024;-76
2022/09/12 11:04:46;;;;;;;22.40;16.70;;;;;;;30.61;36.48;101520.75;5087567;28;20130;-75
2022/09/12 11:07:23;;;;;;;22.83;16.13;;;;;;;30.76;36.18;101525.66;5062557;28;20123;-80
2022/09/12 11:10:10;;;;;;;20.75;15.75;;;;;;;29.09;37.82;101514.06;5076358;28;20489;-78
2022/09/12 11:12:44;;;;;;;21.40;15.52;;;;;;;29.83;36.88;101517.06;5076495;28;20127;-78
2022/09/12 11:15:28;;;;;;;20.33;15.63;;;;;;;30.42;36.65;101506.59;5061266;28;20064;-79
2022/09/12 11:18:22;;;;;;;22.50;16.05;;;;;;;30.70;36.12;101493.72;5082642;28;20032;-77
2022/09/12 11:21:08;;;;;;;21.35;13.32;;;;;;;30.92;35.60;101501.63;5077129;28;20033;-78
2022/09/12 11:24:01;;;;;;;20.30;14.80;;;;;;;30.50;35.81;101489.88;5072782;28;20086;-75
2022/09/12 11:26:42;;;;;;;23.95;14.52;;;;;;;30.59;36.59;101487.81;5053560;28;20524;-76
2022/09/12 11:29:47;;;;;;;23.08;15.23;;;;;;;30.62;35.63;101487.13;5080870;28;20453;-76
2022/09/12 11:32:49;;;;;;;21.60;15.50;;;;;;;30.86;35.01;101489.94;5077209;28;20037;-75